Current Conditions
Clear
Conditions



Rainfall
0.00 (mm) - 0.00 (in)
Pressure
1027.92 (hPa) - 30.35 (inHG)
Visibility

10.0 (km) - 6.2 (miles)
   Temperature
14  °C
57°F
6  °C
Dewpoint
59  %
 Humidity
   Wind Speed
1.3  m/s
3  mph
5  km/h
3  kts
   Wind Direction
Calm
Due North
   Airport Data
ESMX
Location Växjö Kronoberg 15 km (9.32 mi)
Metar :ESMX 010520Z AUTO VRB03KT 9999 NCD 14/06 Q1028
Mon 1st June 06:20 am
   Raw Metar Info
Raw METAR is the most common format in the world for the transmission of observational weather data. It is highly standardized through the International Civil Aviation Organization (ICAO), which allows it to be understood throughout most of the world.
   API Info
Data Provided by
https://www.checkwx.com/weather/ESMX
   © Info
CSS/SVG/PHP scripts were developed by weather34.com for use in the weather34 template © 2015-2020

Guide Info provided by Metar-Wikipedia